Time;durP1;ratioP1;P1;durP2;ratioP2;P2;SDS_P1;SDS_P2;PMS_P1;PMS_P2;Temp;Humidity;BMP_temperature;BMP_pressure;BME280_temperature;BME280_humidity;BME280_pressure;Samples;Min_cycle;Max_cycle;Signal;HPM_P1;HPM_P2
2022/11/24 00:00:43;;;;;;;21.80;10.27;;;;;;;;;;8235604;28;20060;-89
2022/11/24 00:05:02;;;;;;;19.73;11.15;;;;;;;;;;8240366;28;20082;-89
2022/11/24 00:09:05;;;;;;;26.15;11.27;;;;;;;;;;8238158;28;20479;-90
2022/11/24 00:13:08;;;;;;;22.40;9.32;;;;;;;;;;8236290;28;20051;-92
2022/11/24 00:17:10;;;;;;;27.70;11.13;;;;;;;;;;8236415;28;20050;-91
2022/11/24 00:21:15;;;;;;;25.52;11.63;;;;;;;;;;8234573;28;20047;-93
2022/11/24 00:25:18;;;;;;;30.85;12.48;;;;;;;;;;8234643;28;20073;-90
2022/11/24 00:29:20;;;;;;;25.33;10.43;;;;;;;;;;8225871;28;20061;-89
2022/11/24 00:33:23;;;;;;;23.50;10.93;;;;;;;;;;8232962;28;20050;-91
2022/11/24 00:37:27;;;;;;;19.77;9.90;;;;;;;;;;8233607;28;20475;-91
2022/11/24 00:41:30;;;;;;;28.80;13.13;;;;;;;;;;8229570;28;20051;-91
2022/11/24 00:45:33;;;;;;;25.88;11.40;;;;;;;;;;8245108;28;20093;-91
2022/11/24 00:49:36;;;;;;;23.00;10.80;;;;;;;;;;8245619;28;20042;-91
2022/11/24 00:53:41;;;;;;;26.60;11.13;;;;;;;;;;8228896;28;20066;-92
2022/11/24 00:57:43;;;;;;;26.98;10.98;;;;;;;;;;8254578;28;20057;-92
2022/11/24 01:01:46;;;;;;;25.85;10.95;;;;;;;;;;8229206;28;20081;-91
2022/11/24 01:05:49;;;;;;;28.70;11.70;;;;;;;;;;8239457;28;20475;-92
2022/11/24 01:09:53;;;;;;;24.27;11.00;;;;;;;;;;8237098;28;20047;-91
2022/11/24 01:13:58;;;;;;;19.00;9.13;;;;;;;;;;8239282;28;20054;-93
2022/11/24 01:18:00;;;;;;;24.25;11.20;;;;;;;;;;8237004;28;20055;-89
2022/11/24 01:22:03;;;;;;;25.45;11.10;;;;;;;;;;8232545;28;20050;-90
2022/11/24 01:26:09;;;;;;;20.08;10.32;;;;;;;;;;8237519;28;20043;-89
2022/11/24 01:30:12;;;;;;;19.23;9.32;;;;;;;;;;8237989;28;20138;-92
2022/11/24 01:34:14;;;;;;;20.20;9.43;;;;;;;;;;8237201;28;20042;-90
2022/11/24 01:38:17;;;;;;;24.20;9.32;;;;;;;;;;8239387;28;20050;-91
2022/11/24 01:42:21;;;;;;;23.90;10.10;;;;;;;;;;8238090;28;20384;-91
2022/11/24 01:46:27;;;;;;;17.27;8.85;;;;;;;;;;8237842;28;20035;-90
2022/11/24 01:50:30;;;;;;;22.83;9.73;;;;;;;;;;8237514;28;20053;-91
2022/11/24 01:54:36;;;;;;;17.88;8.23;;;;;;;;;;8237286;28;20043;-91
2022/11/24 01:58:42;;;;;;;20.77;9.90;;;;;;;;;;8240504;28;20046;-90
2022/11/24 02:02:45;;;;;;;22.50;9.57;;;;;;;;;;8244133;28;20054;-88
2022/11/24 02:06:48;;;;;;;19.05;8.30;;;;;;;;;;8246089;28;20159;-89
2022/11/24 02:10:51;;;;;;;19.42;9.45;;;;;;;;;;8252069;28;20050;-86
2022/11/24 02:14:56;;;;;;;22.67;10.07;;;;;;;;;;8244552;28;20043;-87
2022/11/24 02:18:58;;;;;;;25.10;10.45;;;;;;;;;;8227863;28;20039;-88
2022/11/24 02:23:06;;;;;;;21.60;9.85;;;;;;;;;;8241954;28;20136;-89
2022/11/24 02:27:11;;;;;;;25.25;10.82;;;;;;;;;;8239729;28;20073;-91
2022/11/24 02:31:14;;;;;;;23.27;10.80;;;;;;;;;;8237442;28;20097;-92
2022/11/24 02:35:17;;;;;;;21.40;9.27;;;;;;;;;;8238345;28;20078;-93
2022/11/24 02:39:20;;;;;;;21.30;9.35;;;;;;;;;;8237336;28;20042;-92
2022/11/24 02:43:25;;;;;;;21.45;9.10;;;;;;;;;;8220375;28;20443;-92
2022/11/24 02:47:29;;;;;;;14.82;7.45;;;;;;;;;;8235505;28;20047;-88
2022/11/24 02:51:33;;;;;;;18.65;8.27;;;;;;;;;;8224042;28;20050;-87
2022/11/24 02:55:35;;;;;;;19.95;9.25;;;;;;;;;;8231700;28;20043;-91
2022/11/24 02:59:40;;;;;;;11.50;5.80;;;;;;;;;;8227247;28;20079;-90
2022/11/24 03:04:12;;;;;;;16.63;7.13;;;;;;;;;;8226872;28;20065;-93
2022/11/24 03:08:15;;;;;;;14.13;7.28;;;;;;;;;;8233593;28;20050;-88
2022/11/24 03:12:18;;;;;;;14.23;7.68;;;;;;;;;;8236679;28;20046;-91
2022/11/24 03:16:22;;;;;;;15.32;6.95;;;;;;;;;;8229139;28;20089;-88
2022/11/24 03:20:25;;;;;;;16.23;7.95;;;;;;;;;;8247126;28;20038;-89
2022/11/24 03:24:27;;;;;;;15.75;7.35;;;;;;;;;;8238989;28;20050;-92
2022/11/24 03:28:30;;;;;;;16.63;7.28;;;;;;;;;;8236092;28;20047;-89
2022/11/24 03:32:34;;;;;;;14.57;7.70;;;;;;;;;;8236671;28;20046;-90
2022/11/24 03:36:36;;;;;;;16.33;7.93;;;;;;;;;;8226241;28;20043;-91
2022/11/24 03:40:39;;;;;;;16.90;7.85;;;;;;;;;;8237037;28;20055;-91
2022/11/24 03:44:41;;;;;;;18.65;8.38;;;;;;;;;;8236667;28;20101;-91
2022/11/24 03:48:45;;;;;;;19.17;8.88;;;;;;;;;;8232675;28;20086;-92
2022/11/24 03:52:48;;;;;;;18.50;8.02;;;;;;;;;;8225590;28;20047;-91
2022/11/24 03:56:50;;;;;;;16.33;7.40;;;;;;;;;;8234971;28;20054;-90
2022/11/24 04:00:54;;;;;;;16.70;7.57;;;;;;;;;;8235418;28;20051;-88
2022/11/24 04:04:59;;;;;;;13.73;6.78;;;;;;;;;;8234915;28;20051;-92
2022/11/24 04:09:01;;;;;;;14.23;6.75;;;;;;;;;;8237933;28;20074;-90
2022/11/24 04:13:04;;;;;;;14.50;6.95;;;;;;;;;;8220648;28;20046;-91
2022/11/24 04:17:07;;;;;;;23.58;7.95;;;;;;;;;;8239406;28;20123;-91
2022/11/24 04:21:11;;;;;;;18.52;7.28;;;;;;;;;;8241389;28;20050;-91
2022/11/24 04:25:16;;;;;;;16.52;6.28;;;;;;;;;;8240702;28;20042;-91
2022/11/24 04:29:18;;;;;;;12.52;5.32;;;;;;;;;;8228338;28;20062;-86
2022/11/24 04:33:21;;;;;;;17.52;8.73;;;;;;;;;;8240141;28;20051;-87
2022/11/24 04:37:25;;;;;;;18.10;8.07;;;;;;;;;;8232771;28;20479;-87
2022/11/24 04:41:27;;;;;;;19.25;8.20;;;;;;;;;;8239999;28;20548;-89
2022/11/24 04:45:30;;;;;;;13.95;6.03;;;;;;;;;;8237790;28;20051;-88
2022/11/24 04:49:32;;;;;;;14.45;6.97;;;;;;;;;;8240308;28;20461;-87
2022/11/24 04:53:37;;;;;;;15.93;7.72;;;;;;;;;;8226630;28;20109;-88
2022/11/24 04:57:39;;;;;;;14.20;6.90;;;;;;;;;;8237570;28;20058;-89
2022/11/24 05:01:42;;;;;;;20.92;8.40;;;;;;;;;;8239984;28;20503;-90
2022/11/24 05:05:44;;;;;;;22.58;9.40;;;;;;;;;;8229806;28;20070;-89
2022/11/24 05:14:09;;;;;;;34.78;10.90;;;;;;;;;;8223010;28;20484;-88
2022/11/24 05:18:15;;;;;;;19.67;7.22;;;;;;;;;;8239810;28;20559;-89
2022/11/24 05:22:17;;;;;;;16.50;7.07;;;;;;;;;;8239038;28;20491;-90
2022/11/24 05:26:24;;;;;;;14.98;6.05;;;;;;;;;;8243331;28;20054;-93
2022/11/24 05:30:26;;;;;;;17.33;8.48;;;;;;;;;;8240627;28;20066;-88
2022/11/24 05:34:32;;;;;;;14.88;6.53;;;;;;;;;;8238852;28;20049;-94
2022/11/24 05:38:35;;;;;;;15.20;6.93;;;;;;;;;;8234703;28;20051;-93
2022/11/24 05:42:45;;;;;;;15.63;7.13;;;;;;;;;;8234562;28;20051;-88
2022/11/24 05:46:47;;;;;;;18.50;8.68;;;;;;;;;;8234509;28;20043;-90
2022/11/24 05:50:55;;;;;;;15.15;6.80;;;;;;;;;;8227157;28;20039;-88
2022/11/24 05:54:57;;;;;;;14.38;6.88;;;;;;;;;;8239266;28;20043;-90
2022/11/24 05:59:01;;;;;;;17.77;7.53;;;;;;;;;;8237351;28;20054;-93
2022/11/24 06:03:04;;;;;;;19.65;8.85;;;;;;;;;;8235310;28;20051;-95
2022/11/24 06:07:08;;;;;;;21.38;8.85;;;;;;;;;;8228503;28;20384;-91
2022/11/24 06:11:19;;;;;;;22.00;9.93;;;;;;;;;;8224789;28;20047;-89
2022/11/24 06:15:24;;;;;;;18.42;8.88;;;;;;;;;;8223728;28;20107;-86
2022/11/24 06:19:26;;;;;;;25.38;10.35;;;;;;;;;;8232818;28;20047;-90
2022/11/24 06:23:29;;;;;;;27.55;9.45;;;;;;;;;;8224002;28;20043;-91
2022/11/24 06:27:31;;;;;;;32.38;12.20;;;;;;;;;;8231107;28;20545;-92
2022/11/24 06:31:35;;;;;;;35.17;14.15;;;;;;;;;;8219437;28;20519;-91
2022/11/24 06:35:38;;;;;;;20.42;10.50;;;;;;;;;;8231608;28;20125;-93
2022/11/24 06:39:41;;;;;;;20.08;9.38;;;;;;;;;;8236294;28;20650;-92
2022/11/24 06:43:44;;;;;;;25.88;11.60;;;;;;;;;;8232372;28;20051;-92
2022/11/24 06:47:49;;;;;;;23.55;9.23;;;;;;;;;;8240272;28;20046;-94
2022/11/24 06:51:51;;;;;;;31.42;13.18;;;;;;;;;;8226025;28;20059;-90
2022/11/24 06:55:57;;;;;;;27.05;10.48;;;;;;;;;;8217711;28;20181;-94
2022/11/24 07:00:00;;;;;;;24.30;9.73;;;;;;;;;;8222922;28;20051;-89
2022/11/24 07:04:04;;;;;;;27.65;10.57;;;;;;;;;;8229439;28;20085;-86
2022/11/24 07:08:07;;;;;;;23.67;10.13;;;;;;;;;;8229634;28;20054;-84
2022/11/24 07:12:10;;;;;;;22.30;9.85;;;;;;;;;;8229298;28;20045;-87
2022/11/24 07:16:15;;;;;;;29.17;12.27;;;;;;;;;;8229699;28;20054;-94
2022/11/24 07:20:21;;;;;;;31.67;13.20;;;;;;;;;;8225077;28;20043;-93
2022/11/24 07:24:23;;;;;;;29.17;12.77;;;;;;;;;;8224124;28;20049;-86
2022/11/24 07:28:26;;;;;;;30.15;11.57;;;;;;;;;;8221219;28;20047;-91
2022/11/24 07:32:29;;;;;;;23.58;10.35;;;;;;;;;;8220407;28;20065;-90
2022/11/24 07:36:33;;;;;;;28.25;11.02;;;;;;;;;;8224015;28;20046;-93
2022/11/24 07:40:42;;;;;;;26.40;12.85;;;;;;;;;;8231127;28;20103;-89
2022/11/24 07:44:44;;;;;;;29.65;10.73;;;;;;;;;;8221585;28;20049;-92
2022/11/24 07:48:47;;;;;;;29.58;13.43;;;;;;;;;;8245711;28;20042;-90
2022/11/24 07:52:53;;;;;;;20.38;10.30;;;;;;;;;;8247416;28;20406;-89
2022/11/24 07:56:57;;;;;;;30.42;12.48;;;;;;;;;;8231196;28;20090;-90
2022/11/24 08:01:09;;;;;;;24.33;10.73;;;;;;;;;;8212542;28;20055;-90
2022/11/24 08:05:15;;;;;;;37.35;14.18;;;;;;;;;;8286831;23;20050;-90
2022/11/24 08:09:21;;;;;;;33.45;12.93;;;;;;;;;;8286684;28;20042;-89
2022/11/24 08:13:25;;;;;;;50.85;17.85;;;;;;;;;;8275953;28;20413;-90
2022/11/24 08:17:30;;;;;;;63.55;21.27;;;;;;;;;;8295161;28;20038;-92
2022/11/24 08:21:33;;;;;;;28.45;12.10;;;;;;;;;;8292371;28;20046;-91
2022/11/24 08:25:38;;;;;;;29.42;11.88;;;;;;;;;;8289461;28;20048;-92
2022/11/24 08:29:41;;;;;;;28.92;13.30;;;;;;;;;;8291960;28;20125;-90
2022/11/24 08:33:44;;;;;;;23.00;11.38;;;;;;;;;;8294244;28;20061;-93
2022/11/24 08:37:50;;;;;;;23.67;10.68;;;;;;;;;;8302712;28;20444;-88
2022/11/24 08:41:54;;;;;;;27.40;11.10;;;;;;;;;;8282632;28;20104;-86
2022/11/24 08:46:00;;;;;;;22.38;9.55;;;;;;;;;;8276993;28;20047;-87
2022/11/24 08:50:02;;;;;;;37.03;14.85;;;;;;;;;;8274764;28;20512;-91
2022/11/24 08:54:05;;;;;;;31.88;12.63;;;;;;;;;;8288691;28;20049;-89
2022/11/24 08:58:09;;;;;;;20.63;9.30;;;;;;;;;;8297680;28;20038;-90
2022/11/24 09:02:13;;;;;;;25.95;10.88;;;;;;;;;;8292531;28;20049;-92
2022/11/24 09:06:15;;;;;;;25.58;11.07;;;;;;;;;;8290843;28;20065;-90
2022/11/24 09:10:18;;;;;;;21.55;10.45;;;;;;;;;;8294384;28;20474;-89
2022/11/24 09:14:22;;;;;;;26.40;12.05;;;;;;;;;;8301352;28;20100;-89
2022/11/24 09:18:25;;;;;;;25.83;12.35;;;;;;;;;;8299924;28;20052;-87
2022/11/24 09:22:27;;;;;;;30.88;12.30;;;;;;;;;;8280015;28;20049;-84
2022/11/24 09:26:31;;;;;;;30.80;13.25;;;;;;;;;;8285320;28;20113;-89
2022/11/24 09:30:36;;;;;;;27.38;12.18;;;;;;;;;;8297429;28;20046;-90
2022/11/24 09:34:38;;;;;;;32.53;14.60;;;;;;;;;;8299632;28;20398;-87
2022/11/24 09:38:41;;;;;;;27.10;11.43;;;;;;;;;;8300897;28;20045;-85
2022/11/24 09:42:51;;;;;;;22.85;9.98;;;;;;;;;;8298158;28;20046;-87
2022/11/24 09:47:00;;;;;;;23.10;10.27;;;;;;;;;;8299152;28;20096;-88
2022/11/24 09:51:05;;;;;;;26.08;11.32;;;;;;;;;;8300844;28;20050;-87
2022/11/24 09:55:32;;;;;;;33.25;13.40;;;;;;;;;;8300274;28;20053;-88
2022/11/24 09:59:35;;;;;;;60.08;21.08;;;;;;;;;;8292212;28;20066;-84
2022/11/24 10:03:43;;;;;;;32.42;13.95;;;;;;;;;;8300073;28;20049;-85
2022/11/24 10:07:55;;;;;;;27.52;12.63;;;;;;;;;;8299629;28;20053;-87
2022/11/24 10:12:10;;;;;;;19.33;9.57;;;;;;;;;;8299869;28;20489;-87
2022/11/24 10:16:19;;;;;;;17.08;6.75;;;;;;;;;;8298932;28;20108;-88
2022/11/24 10:20:37;;;;;;;32.30;11.68;;;;;;;;;;8288529;28;20406;-88
2022/11/24 10:25:07;;;;;;;27.05;12.35;;;;;;;;;;8288674;28;20053;-87
2022/11/24 10:29:20;;;;;;;20.45;9.07;;;;;;;;;;8293009;28;20494;-86
2022/11/24 10:33:25;;;;;;;21.35;10.15;;;;;;;;;;8283333;28;20042;-94
2022/11/24 10:37:36;;;;;;;19.73;9.27;;;;;;;;;;8283215;28;20548;-92
2022/11/24 10:41:47;;;;;;;18.20;8.85;;;;;;;;;;8282508;28;20379;-93
2022/11/24 10:45:50;;;;;;;28.60;12.63;;;;;;;;;;8283222;28;20108;-91
2022/11/24 10:50:00;;;;;;;28.65;12.18;;;;;;;;;;8293153;28;20054;-91
2022/11/24 10:54:12;;;;;;;26.95;11.00;;;;;;;;;;8273566;28;20053;-85
2022/11/24 10:58:16;;;;;;;23.20;9.95;;;;;;;;;;8286060;28;20050;-89
2022/11/24 11:02:37;;;;;;;25.48;10.20;;;;;;;;;;8296886;28;20466;-86
2022/11/24 11:06:40;;;;;;;33.93;12.90;;;;;;;;;;8298682;28;20081;-89
2022/11/24 11:10:45;;;;;;;27.95;11.30;;;;;;;;;;8298405;28;20060;-85
2022/11/24 11:14:47;;;;;;;27.85;12.85;;;;;;;;;;8298188;28;20482;-84
2022/11/24 11:18:50;;;;;;;35.45;14.18;;;;;;;;;;8297244;28;20537;-89
2022/11/24 11:22:55;;;;;;;26.67;11.70;;;;;;;;;;8278144;28;20521;-90
2022/11/24 11:27:04;;;;;;;27.58;11.02;;;;;;;;;;8299077;28;20072;-86
2022/11/24 11:31:23;;;;;;;24.30;10.80;;;;;;;;;;8275463;28;20046;-88
2022/11/24 11:35:28;;;;;;;28.25;12.55;;;;;;;;;;8296274;28;20041;-90
2022/11/24 11:39:33;;;;;;;26.63;10.38;;;;;;;;;;8298812;28;20046;-89
2022/11/24 11:43:40;;;;;;;26.75;12.80;;;;;;;;;;8293241;28;20104;-90
2022/11/24 11:47:47;;;;;;;20.02;10.10;;;;;;;;;;8287318;28;20050;-88
2022/11/24 11:52:13;;;;;;;23.90;9.85;;;;;;;;;;8291841;28;20038;-91
2022/11/24 11:56:23;;;;;;;27.45;12.07;;;;;;;;;;8285216;28;20046;-88
2022/11/24 12:00:27;;;;;;;26.98;9.85;;;;;;;;;;8281423;28;20048;-91
2022/11/24 12:04:44;;;;;;;27.70;12.02;;;;;;;;;;8292840;28;20101;-90
2022/11/24 12:08:56;;;;;;;29.83;11.85;;;;;;;;;;8280339;28;20050;-91
2022/11/24 12:13:22;;;;;;;23.83;9.57;;;;;;;;;;8291846;28;20045;-87
2022/11/24 12:17:34;;;;;;;25.88;11.95;;;;;;;;;;8275551;28;20066;-86
2022/11/24 12:21:47;;;;;;;31.45;12.57;;;;;;;;;;8296716;28;20041;-84
2022/11/24 12:25:57;;;;;;;24.45;9.95;;;;;;;;;;8296743;28;20050;-87
2022/11/24 12:30:11;;;;;;;23.73;10.60;;;;;;;;;;8299722;28;20050;-87
2022/11/24 12:34:38;;;;;;;16.35;7.93;;;;;;;;;;8303446;28;20053;-87
2022/11/24 12:38:55;;;;;;;24.15;8.55;;;;;;;;;;8302900;28;20096;-86
2022/11/24 12:43:09;;;;;;;14.48;7.05;;;;;;;;;;8302852;28;20473;-87
2022/11/24 12:47:16;;;;;;;15.63;6.60;;;;;;;;;;8297281;28;20081;-84
2022/11/24 12:51:27;;;;;;;13.88;7.30;;;;;;;;;;8301437;28;20096;-84
2022/11/24 12:55:32;;;;;;;23.52;10.38;;;;;;;;;;8297120;28;20088;-86
2022/11/24 12:59:44;;;;;;;20.90;7.47;;;;;;;;;;8300498;28;20058;-85
2022/11/24 13:04:01;;;;;;;15.02;9.10;;;;;;;;;;8299114;28;20497;-85
2022/11/24 13:08:06;;;;;;;14.93;7.43;;;;;;;;;;8301167;28;20042;-85
2022/11/24 13:12:12;;;;;;;31.23;13.45;;;;;;;;;;8299949;28;20045;-82
2022/11/24 13:16:15;;;;;;;16.55;8.05;;;;;;;;;;8301695;28;20172;-84
2022/11/24 13:20:25;;;;;;;19.70;7.95;;;;;;;;;;8301453;28;20048;-83
2022/11/24 13:24:32;;;;;;;15.80;7.05;;;;;;;;;;8301527;28;20045;-84
2022/11/24 13:28:59;;;;;;;18.13;7.82;;;;;;;;;;8301327;28;20038;-84
2022/11/24 13:33:18;;;;;;;16.00;7.97;;;;;;;;;;8294990;28;20248;-84
2022/11/24 13:37:45;;;;;;;18.48;9.43;;;;;;;;;;8292826;28;20116;-84
2022/11/24 13:42:10;;;;;;;19.23;8.52;;;;;;;;;;8293830;28;20052;-86
2022/11/24 13:46:13;;;;;;;12.43;6.60;;;;;;;;;;8299300;28;20093;-84
2022/11/24 13:50:44;;;;;;;15.07;6.00;;;;;;;;;;8298441;28;20444;-86
2022/11/24 13:54:47;;;;;;;15.52;7.20;;;;;;;;;;8289646;28;20133;-86
2022/11/24 13:58:53;;;;;;;18.48;7.47;;;;;;;;;;8299110;28;20069;-86
2022/11/24 14:02:59;;;;;;;22.17;8.52;;;;;;;;;;8300124;28;20053;-85
2022/11/24 14:07:05;;;;;;;18.70;8.73;;;;;;;;;;8300245;28;20073;-86
2022/11/24 14:11:14;;;;;;;25.92;11.48;;;;;;;;;;8300203;28;20074;-86
2022/11/24 14:15:24;;;;;;;20.23;10.68;;;;;;;;;;8299935;28;20490;-86
2022/11/24 14:19:26;;;;;;;20.33;9.43;;;;;;;;;;8299903;28;20073;-84
2022/11/24 14:23:29;;;;;;;24.27;11.35;;;;;;;;;;8299591;28;20444;-84
2022/11/24 14:27:34;;;;;;;38.88;16.02;;;;;;;;;;8299518;28;20042;-86
2022/11/24 14:31:38;;;;;;;24.60;11.82;;;;;;;;;;8299563;28;20053;-85
2022/11/24 14:35:44;;;;;;;25.00;12.50;;;;;;;;;;8299567;28;20041;-86
2022/11/24 14:39:47;;;;;;;28.02;11.68;;;;;;;;;;8299615;28;20050;-86
2022/11/24 14:43:50;;;;;;;51.15;19.20;;;;;;;;;;8299250;28;20045;-87
2022/11/24 14:47:54;;;;;;;38.60;15.18;;;;;;;;;;8299160;28;20046;-85
2022/11/24 14:52:00;;;;;;;27.50;13.38;;;;;;;;;;8298477;28;20056;-86
2022/11/24 14:56:08;;;;;;;29.90;13.35;;;;;;;;;;8298278;28;20478;-86
2022/11/24 15:00:19;;;;;;;31.50;14.05;;;;;;;;;;8284798;28;20045;-84
2022/11/24 15:04:30;;;;;;;44.33;19.73;;;;;;;;;;8298068;28;20085;-86
2022/11/24 15:08:37;;;;;;;54.42;20.65;;;;;;;;;;8298175;28;20042;-85
2022/11/24 15:12:42;;;;;;;40.58;17.45;;;;;;;;;;8298100;28;20053;-86
2022/11/24 15:16:45;;;;;;;40.80;17.88;;;;;;;;;;8297786;28;20504;-85
2022/11/24 15:20:49;;;;;;;57.83;24.45;;;;;;;;;;8297887;28;20053;-85
2022/11/24 15:24:55;;;;;;;46.50;21.55;;;;;;;;;;8297576;28;20103;-86
2022/11/24 15:28:57;;;;;;;51.78;21.65;;;;;;;;;;8297542;28;20469;-84
2022/11/24 15:33:00;;;;;;;48.80;21.80;;;;;;;;;;8297380;28;20048;-86
2022/11/24 15:37:04;;;;;;;56.05;25.13;;;;;;;;;;8297358;28;20493;-88
2022/11/24 15:41:18;;;;;;;61.72;27.38;;;;;;;;;;8297319;28;20050;-86
2022/11/24 15:45:22;;;;;;;66.95;28.52;;;;;;;;;;8297169;28;20042;-85
2022/11/24 15:49:25;;;;;;;73.90;28.25;;;;;;;;;;8297316;28;20037;-87
2022/11/24 15:53:32;;;;;;;58.30;24.30;;;;;;;;;;8297130;28;20426;-85
2022/11/24 15:57:34;;;;;;;53.97;23.63;;;;;;;;;;8296984;28;20056;-86
2022/11/24 16:01:37;;;;;;;51.78;23.13;;;;;;;;;;8297006;28;20042;-85
2022/11/24 16:05:40;;;;;;;52.80;23.58;;;;;;;;;;8296325;28;20435;-86
2022/11/24 16:09:44;;;;;;;58.40;25.98;;;;;;;;;;8297115;28;20054;-86
2022/11/24 16:13:47;;;;;;;69.63;28.48;;;;;;;;;;8296818;28;20042;-86
2022/11/24 16:17:49;;;;;;;71.32;32.92;;;;;;;;;;8297018;28;20049;-86
2022/11/24 16:21:52;;;;;;;78.38;36.03;;;;;;;;;;8296933;28;20406;-86
2022/11/24 16:25:56;;;;;;;49.70;22.00;;;;;;;;;;8297040;28;20069;-87
2022/11/24 16:30:00;;;;;;;53.90;23.35;;;;;;;;;;8296789;28;20048;-86
2022/11/24 16:34:02;;;;;;;48.63;20.90;;;;;;;;;;8296790;28;20071;-85
2022/11/24 16:38:05;;;;;;;52.47;24.77;;;;;;;;;;8296871;28;20049;-88
2022/11/24 16:42:10;;;;;;;60.22;24.98;;;;;;;;;;8296639;28;20048;-85
2022/11/24 16:46:20;;;;;;;67.55;32.05;;;;;;;;;;8296497;28;20046;-87
2022/11/24 16:50:23;;;;;;;64.32;27.98;;;;;;;;;;8296392;28;20652;-85
2022/11/24 16:54:25;;;;;;;69.03;29.88;;;;;;;;;;8296417;28;20108;-84
2022/11/24 16:58:30;;;;;;;74.70;28.88;;;;;;;;;;8296316;28;20164;-86
2022/11/24 17:02:33;;;;;;;61.67;23.77;;;;;;;;;;8295937;28;20498;-86
2022/11/24 17:06:36;;;;;;;48.63;22.13;;;;;;;;;;8296200;28;20088;-84
2022/11/24 17:10:39;;;;;;;57.08;22.70;;;;;;;;;;8296247;28;20038;-86
2022/11/24 17:14:43;;;;;;;52.10;21.17;;;;;;;;;;8295858;28;20064;-86
2022/11/24 17:18:46;;;;;;;59.13;23.48;;;;;;;;;;8301334;28;20042;-86
2022/11/24 17:22:49;;;;;;;56.53;20.92;;;;;;;;;;8302016;28;20070;-84
2022/11/24 17:26:51;;;;;;;51.20;21.52;;;;;;;;;;8302047;28;20034;-87
2022/11/24 17:30:56;;;;;;;46.08;21.08;;;;;;;;;;8301581;28;20549;-86
2022/11/24 17:34:59;;;;;;;53.80;22.23;;;;;;;;;;8301045;28;20068;-84
2022/11/24 17:39:03;;;;;;;58.35;25.00;;;;;;;;;;8301160;28;20050;-85
2022/11/24 17:43:06;;;;;;;52.78;23.58;;;;;;;;;;8301059;28;20114;-84
2022/11/24 17:47:11;;;;;;;58.90;24.08;;;;;;;;;;8301456;28;20478;-86
2022/11/24 17:51:15;;;;;;;75.40;31.00;;;;;;;;;;8285965;28;20405;-87
2022/11/24 17:55:18;;;;;;;74.78;25.63;;;;;;;;;;8301045;28;20054;-86
2022/11/24 17:59:21;;;;;;;74.18;27.80;;;;;;;;;;8292826;28;20049;-86
2022/11/24 18:03:27;;;;;;;74.38;26.60;;;;;;;;;;8283109;28;20514;-85
2022/11/24 18:07:30;;;;;;;78.70;29.83;;;;;;;;;;8300287;28;20042;-86
2022/11/24 18:11:33;;;;;;;87.95;32.90;;;;;;;;;;8300531;28;20448;-85
2022/11/24 18:15:35;;;;;;;75.13;30.38;;;;;;;;;;8300298;28;20095;-86
2022/11/24 18:19:40;;;;;;;61.70;26.98;;;;;;;;;;8299902;28;20116;-85
2022/11/24 18:23:43;;;;;;;68.00;28.65;;;;;;;;;;8299508;28;20137;-88
2022/11/24 18:27:47;;;;;;;65.85;27.83;;;;;;;;;;8299405;28;20400;-84
2022/11/24 18:31:50;;;;;;;52.15;21.42;;;;;;;;;;8300921;28;20458;-87
2022/11/24 18:35:58;;;;;;;69.60;24.40;;;;;;;;;;8297339;28;20053;-87
2022/11/24 18:40:01;;;;;;;66.68;27.13;;;;;;;;;;8292869;28;20045;-87
2022/11/24 18:44:07;;;;;;;62.17;25.05;;;;;;;;;;8289647;28;20611;-87
2022/11/24 18:48:09;;;;;;;62.72;23.92;;;;;;;;;;8288640;28;20046;-86
2022/11/24 18:52:14;;;;;;;64.40;26.35;;;;;;;;;;8259448;28;20145;-86
2022/11/24 18:56:17;;;;;;;65.55;25.45;;;;;;;;;;8282112;28;20046;-87
2022/11/24 19:00:22;;;;;;;56.60;22.13;;;;;;;;;;8271915;28;20053;-87
2022/11/24 19:04:25;;;;;;;46.25;18.38;;;;;;;;;;8291539;28;20050;-87
2022/11/24 19:08:30;;;;;;;54.97;20.88;;;;;;;;;;8284691;28;20058;-87
2022/11/24 19:12:32;;;;;;;55.95;21.05;;;;;;;;;;8286830;28;20094;-87
2022/11/24 19:16:35;;;;;;;46.85;18.08;;;;;;;;;;8292824;28;20041;-86
2022/11/24 19:20:39;;;;;;;54.08;19.65;;;;;;;;;;8279080;28;20049;-87
2022/11/24 19:24:45;;;;;;;45.50;17.45;;;;;;;;;;8286367;28;20120;-87
2022/11/24 19:28:48;;;;;;;43.13;16.92;;;;;;;;;;8292835;28;20052;-86
2022/11/24 19:32:52;;;;;;;57.17;21.77;;;;;;;;;;8293265;28;20092;-86
2022/11/24 19:36:56;;;;;;;54.47;20.92;;;;;;;;;;8280084;28;20046;-87
2022/11/24 19:41:04;;;;;;;39.58;15.60;;;;;;;;;;8292812;28;20037;-86
2022/11/24 19:45:09;;;;;;;50.72;20.52;;;;;;;;;;8285447;28;20088;-85
2022/11/24 19:49:15;;;;;;;53.55;19.95;;;;;;;;;;8275673;28;20068;-87
2022/11/24 19:53:18;;;;;;;35.83;11.88;;;;;;;;;;8278232;28;20383;-88
2022/11/24 19:57:23;;;;;;;41.95;17.83;;;;;;;;;;8287454;28;20496;-87
2022/11/24 20:01:29;;;;;;;48.67;20.33;;;;;;;;;;8303425;28;20050;-87
2022/11/24 20:05:32;;;;;;;56.47;19.77;;;;;;;;;;8246233;28;20061;-87
2022/11/24 20:09:35;;;;;;;46.85;17.70;;;;;;;;;;8266030;28;20043;-86
2022/11/24 20:13:42;;;;;;;52.47;20.35;;;;;;;;;;8265983;28;20042;-86
2022/11/24 20:17:45;;;;;;;48.65;20.55;;;;;;;;;;8263972;28;20070;-85
2022/11/24 20:21:50;;;;;;;55.55;21.02;;;;;;;;;;8264475;28;20074;-86
2022/11/24 20:25:53;;;;;;;48.45;18.63;;;;;;;;;;8265056;28;20046;-85
2022/11/24 20:30:01;;;;;;;54.03;22.17;;;;;;;;;;8264309;28;20174;-86
2022/11/24 20:34:06;;;;;;;59.25;24.45;;;;;;;;;;8264331;28;20494;-85
2022/11/24 20:38:15;;;;;;;58.50;23.48;;;;;;;;;;8264035;28;20607;-86
2022/11/24 20:42:18;;;;;;;51.65;21.45;;;;;;;;;;8264201;28;20046;-85
2022/11/24 20:46:28;;;;;;;62.15;23.17;;;;;;;;;;8264175;28;20046;-87
2022/11/24 20:50:30;;;;;;;61.72;25.88;;;;;;;;;;8265837;28;20046;-85
2022/11/24 20:54:33;;;;;;;63.63;25.15;;;;;;;;;;8270194;28;20482;-86
2022/11/24 20:58:37;;;;;;;73.32;27.00;;;;;;;;;;8270312;28;20397;-86
2022/11/24 21:02:42;;;;;;;54.08;22.20;;;;;;;;;;8269547;28;20054;-84
2022/11/24 21:06:44;;;;;;;64.45;25.63;;;;;;;;;;8253042;28;20097;-86
2022/11/24 21:10:52;;;;;;;62.67;24.92;;;;;;;;;;8269572;28;20097;-85
2022/11/24 21:14:56;;;;;;;58.55;23.27;;;;;;;;;;8269401;28;20129;-85
2022/11/24 21:19:02;;;;;;;56.80;21.00;;;;;;;;;;8252858;28;20112;-86
2022/11/24 21:23:04;;;;;;;60.92;21.42;;;;;;;;;;8269239;28;20046;-86
2022/11/24 21:27:07;;;;;;;47.92;18.92;;;;;;;;;;8269367;28;20406;-86
2022/11/24 21:31:13;;;;;;;63.83;23.73;;;;;;;;;;8268911;28;20512;-86
2022/11/24 21:35:17;;;;;;;46.90;18.02;;;;;;;;;;8268665;28;20057;-86
2022/11/24 21:39:19;;;;;;;50.15;17.65;;;;;;;;;;8268687;28;20481;-86
2022/11/24 21:43:22;;;;;;;50.85;20.02;;;;;;;;;;8269155;28;20414;-87
2022/11/24 21:47:25;;;;;;;148.20;43.13;;;;;;;;;;8268531;28;20093;-84
2022/11/24 21:51:29;;;;;;;75.68;30.13;;;;;;;;;;8268592;28;20054;-86
2022/11/24 21:55:32;;;;;;;60.50;22.45;;;;;;;;;;8268042;28;20074;-85
2022/11/24 21:59:34;;;;;;;54.85;19.40;;;;;;;;;;8267869;28;20054;-84
2022/11/24 22:03:37;;;;;;;59.42;20.92;;;;;;;;;;8267170;28;20061;-86
2022/11/24 22:07:42;;;;;;;48.38;19.88;;;;;;;;;;8268056;28;20060;-85
2022/11/24 22:11:44;;;;;;;47.45;16.27;;;;;;;;;;8268207;28;20391;-86
2022/11/24 22:15:47;;;;;;;52.85;19.30;;;;;;;;;;8268035;28;20090;-86
2022/11/24 22:19:49;;;;;;;44.60;19.48;;;;;;;;;;8267692;28;20108;-84
2022/11/24 22:23:53;;;;;;;48.70;19.90;;;;;;;;;;8267534;28;20097;-86
2022/11/24 22:27:57;;;;;;;51.80;18.10;;;;;;;;;;8267008;28;20166;-86
2022/11/24 22:32:02;;;;;;;51.30;19.02;;;;;;;;;;8266931;28;20093;-85
2022/11/24 22:36:05;;;;;;;54.25;20.77;;;;;;;;;;8266921;28;20049;-85
2022/11/24 22:40:10;;;;;;;52.17;19.17;;;;;;;;;;8266658;28;20483;-85
2022/11/24 22:44:12;;;;;;;46.60;18.08;;;;;;;;;;8266796;28;20110;-86
2022/11/24 22:48:15;;;;;;;41.03;17.13;;;;;;;;;;8266510;28;20042;-87
2022/11/24 22:52:18;;;;;;;52.45;20.75;;;;;;;;;;8266539;28;20133;-84
2022/11/24 22:56:22;;;;;;;57.13;20.60;;;;;;;;;;8265881;28;20054;-83
2022/11/24 23:00:25;;;;;;;55.65;21.33;;;;;;;;;;8266355;28;20050;-85
2022/11/24 23:04:27;;;;;;;65.80;23.38;;;;;;;;;;8265989;28;20497;-86
2022/11/24 23:08:32;;;;;;;66.50;24.73;;;;;;;;;;8248717;28;20062;-85
2022/11/24 23:12:35;;;;;;;58.17;21.25;;;;;;;;;;8265626;28;20050;-85
2022/11/24 23:16:38;;;;;;;57.97;21.40;;;;;;;;;;8254195;28;20050;-85
2022/11/24 23:20:40;;;;;;;48.35;19.00;;;;;;;;;;8264949;28;20054;-85
2022/11/24 23:24:43;;;;;;;53.15;20.67;;;;;;;;;;8258948;28;20084;-86
2022/11/24 23:28:47;;;;;;;49.25;19.75;;;;;;;;;;8263948;28;20505;-86
2022/11/24 23:32:53;;;;;;;41.72;17.63;;;;;;;;;;8235906;28;20061;-86
2022/11/24 23:36:55;;;;;;;50.00;19.67;;;;;;;;;;8215456;28;20046;-87
2022/11/24 23:40:58;;;;;;;41.47;17.15;;;;;;;;;;8232077;28;20047;-86
2022/11/24 23:45:02;;;;;;;45.72;16.60;;;;;;;;;;8243752;28;20053;-86
2022/11/24 23:49:05;;;;;;;61.25;24.48;;;;;;;;;;8262750;28;20042;-86
2022/11/24 23:53:07;;;;;;;56.92;23.48;;;;;;;;;;8264392;28;20042;-87
2022/11/24 23:57:10;;;;;;;41.15;17.25;;;;;;;;;;8263983;28;20514;-88
